Sebastian, FL (32958)

7:10 AM EST on December 03, 2016 (GMT -0500)
OZWORLD - *Sebastian Highlands* - | | Change Station
Active Advisory: Beach Hazard Statement

Elev 23 ft 27.80 °N, 80.48 °W | Updated 10 seconds ago

Clear
Clear
66.6 °F
Feels Like 66.6 °F
N
0.0
Wind Variable Wind from NE
Gusts 0.0 mph

Today
High -- | Low -- °F
--% Chance of Precip.
Yesterday
High -- | Low -- °F
Precip. -- in
Pressure 30.13 in
Visibility 10.0 miles
Clouds Clear
Dew Point 60 °F
Humidity 80%
Rainfall 0.00 in
Snow Depth Not available.
6:57 AM 5:26 PM
Waxing Crescent, 14% visible
METAR KVRB 031153Z AUTO 28004KT 10SM CLR 13/12 A3013 RMK AO2 SLP202 T01280122 10144 20122 53007
Pressure 30.13 in
Visibility 10.0 miles
Clouds Clear
Dew Point 60 °F
Humidity 80%
Rainfall 0.00 in
Snow Depth Not available.
6:57 AM 5:26 PM
Waxing Crescent, 14% visible
METAR KVRB 031153Z AUTO 28004KT 10SM CLR 13/12 A3013 RMK AO2 SLP202 T01280122 10144 20122 53007

10-Day Weather Forecast

Almanac

Astronomy

Dec. 03, 2016 Rise Set
Actual Time
Civil Twilight
Nautical Twilight
Astronomical Twilight
Moon
Length of Visible Light
Length of Day
Tomorrow will be .
, % of the Moon is Illuminated

Today's Extremes

State Highs State Lows

Community

WunderPhotos

Upload Photos

1,955,441 photos uploaded!

WunderBlog® & News

Nearby

Air Quality

  Air Quality AQ Index Pollutant
Not available.

Snow Depth

Station Depth Elevation

Earthquake Activity

City Distance Mag. Time & Date
Minimum magnitude displayed is 2.5.

Coastal Water Temperatures

Place Temperature

Stations

Nearby Weather Stations

Station Location Temp. Windchill Dew Point Humidity Wind Precip. Elev Updated Type
                   

Watches & Warnings

Beach Hazard Statement
Issued: 3:55 AM EST Dec. 3, 2016 – National Weather Service

... Beach hazards statement in effect from 7 am EST this morning
through this afternoon...

The National Weather Service in Melbourne has issued a beach
hazards statement for rough surf and a moderate risk of rip
currents... which is in effect from 7 am EST this morning through
this afternoon.

* Hazards... breezy northeast winds will produce rough surf. Life
threatening rip currents are also possible.

* Timing... today.

* Location... Volusia, Brevard, Indian River, Saint Lucie and
Martin County beaches.

* Potential impacts... rough surf and a moderate risk of strong rip
currents.

Precautionary/preparedness actions...

Surf zone conditions will pose a moderate hazard. Breaking waves
can knock you down and make you susceptible to seaward flowing rip
currents. Only enter the surf near a lifeguard.

If caught in a rip current remain calm. Don't fight the current.
Swim in a direction following the shoreline. If unable to
escape... face the shore and call or wave for help. If tired,
float or tread water until out of the rip current.